Time;durP1;ratioP1;P1;durP2;ratioP2;P2;SDS_P1;SDS_P2;PMS_P1;PMS_P2;Temp;Humidity;BMP_temperature;BMP_pressure;BME280_temperature;BME280_humidity;BME280_pressure;Samples;Min_cycle;Max_cycle;Signal;HPM_P1;HPM_P2
2023/12/09 00:00:57;;;;;;;5.22;3.65;;;;;;;;;;5009399;28;20446;-58
2023/12/09 00:03:22;;;;;;;4.63;3.80;;;;;;;;;;5027752;28;20053;-60
2023/12/09 00:05:47;;;;;;;5.03;3.78;;;;;;;;;;5024614;28;20029;-59
2023/12/09 00:08:13;;;;;;;4.45;3.53;;;;;;;;;;5009049;28;20463;-58
2023/12/09 00:10:38;;;;;;;5.05;4.00;;;;;;;;;;5026746;28;20094;-58
2023/12/09 00:13:03;;;;;;;5.05;3.85;;;;;;;;;;5027758;28;20124;-58
2023/12/09 00:15:29;;;;;;;5.05;3.80;;;;;;;;;;5025354;28;20029;-58
2023/12/09 00:17:54;;;;;;;4.82;3.70;;;;;;;;;;5019237;28;20045;-58
2023/12/09 00:20:19;;;;;;;5.07;3.50;;;;;;;;;;5018506;28;20033;-59
2023/12/09 00:22:44;;;;;;;4.85;3.80;;;;;;;;;;5003703;28;20084;-58
2023/12/09 00:25:10;;;;;;;5.32;3.85;;;;;;;;;;5021283;28;20029;-59
2023/12/09 00:27:35;;;;;;;5.28;3.80;;;;;;;;;;5002247;28;20606;-59
2023/12/09 00:30:00;;;;;;;4.90;3.70;;;;;;;;;;5024899;28;20041;-59
2023/12/09 00:32:26;;;;;;;4.68;3.88;;;;;;;;;;5009881;28;20041;-59
2023/12/09 00:34:51;;;;;;;4.80;3.72;;;;;;;;;;5026883;28;20571;-58
2023/12/09 00:37:16;;;;;;;4.93;3.97;;;;;;;;;;5008839;28;20052;-58
2023/12/09 00:39:41;;;;;;;5.63;3.88;;;;;;;;;;5007984;28;20033;-58
2023/12/09 00:42:07;;;;;;;4.97;3.90;;;;;;;;;;5026352;28;20430;-58
2023/12/09 00:44:32;;;;;;;4.38;3.35;;;;;;;;;;5008477;28;20107;-58
2023/12/09 00:46:57;;;;;;;5.28;3.80;;;;;;;;;;5026443;28;20045;-58
2023/12/09 00:49:23;;;;;;;4.65;3.90;;;;;;;;;;5008873;28;20087;-58
2023/12/09 00:51:48;;;;;;;5.45;3.90;;;;;;;;;;5026681;28;20103;-58
2023/12/09 00:54:14;;;;;;;4.60;3.47;;;;;;;;;;5027043;28;20153;-58
2023/12/09 00:56:39;;;;;;;4.97;3.58;;;;;;;;;;5025311;28;20112;-58
2023/12/09 00:59:05;;;;;;;5.00;3.80;;;;;;;;;;5026203;28;20034;-60
2023/12/09 01:01:30;;;;;;;5.18;3.88;;;;;;;;;;5008687;28;20029;-59
2023/12/09 01:03:55;;;;;;;3.80;3.35;;;;;;;;;;5007680;28;20365;-59
2023/12/09 01:06:21;;;;;;;4.22;3.40;;;;;;;;;;5026231;28;20123;-59
2023/12/09 01:08:46;;;;;;;4.47;3.40;;;;;;;;;;5008334;28;20073;-59
2023/12/09 01:11:11;;;;;;;4.63;3.58;;;;;;;;;;5026161;28;20060;-59
2023/12/09 01:13:37;;;;;;;4.10;3.30;;;;;;;;;;5025227;28;20144;-58
2023/12/09 01:16:03;;;;;;;4.50;3.85;;;;;;;;;;5026665;28;20559;-57
2023/12/09 01:18:28;;;;;;;5.15;3.63;;;;;;;;;;5025996;28;20040;-57
2023/12/09 01:20:53;;;;;;;5.18;3.90;;;;;;;;;;5025798;28;20474;-57
2023/12/09 01:23:18;;;;;;;5.90;4.00;;;;;;;;;;5007772;28;20080;-58
2023/12/09 01:25:44;;;;;;;4.65;3.60;;;;;;;;;;5007959;28;20133;-58
2023/12/09 01:28:09;;;;;;;5.18;3.70;;;;;;;;;;5025901;28;20403;-58
2023/12/09 01:30:34;;;;;;;5.25;3.55;;;;;;;;;;5024754;28;20099;-57
2023/12/09 01:33:00;;;;;;;4.38;3.47;;;;;;;;;;5025128;28;20049;-57
2023/12/09 01:35:25;;;;;;;4.78;3.60;;;;;;;;;;5025891;28;20034;-58
2023/12/09 01:37:50;;;;;;;4.50;3.60;;;;;;;;;;5025798;28;20037;-58
2023/12/09 01:40:15;;;;;;;4.47;3.55;;;;;;;;;;5025562;28;20451;-58
2023/12/09 01:42:42;;;;;;;5.53;3.70;;;;;;;;;;5024400;28;20038;-58
2023/12/09 01:45:07;;;;;;;4.93;3.63;;;;;;;;;;5025146;28;20041;-57
2023/12/09 01:47:35;;;;;;;4.38;3.53;;;;;;;;;;5006623;28;20050;-58
2023/12/09 01:50:00;;;;;;;5.10;3.85;;;;;;;;;;5018069;28;20110;-58
2023/12/09 01:52:26;;;;;;;5.05;3.80;;;;;;;;;;5025007;28;20041;-58
2023/12/09 01:54:51;;;;;;;4.55;3.42;;;;;;;;;;5007383;28;20033;-57
2023/12/09 01:57:16;;;;;;;4.30;3.50;;;;;;;;;;5024751;28;20044;-58
2023/12/09 01:59:41;;;;;;;4.60;3.30;;;;;;;;;;5024760;28;20026;-57
2023/12/09 02:02:07;;;;;;;4.65;3.60;;;;;;;;;;5024690;28;20045;-58
2023/12/09 02:04:32;;;;;;;4.95;3.60;;;;;;;;;;5024083;28;20108;-58
2023/12/09 02:06:57;;;;;;;4.35;3.38;;;;;;;;;;5025906;28;20049;-58
2023/12/09 02:09:22;;;;;;;4.80;3.60;;;;;;;;;;5007747;28;20045;-58
2023/12/09 02:11:50;;;;;;;4.43;3.67;;;;;;;;;;5024557;28;20554;-58
2023/12/09 02:14:35;;;;;;;5.15;4.10;;;;;;;;;;5024706;28;20029;-58
2023/12/09 02:17:08;;;;;;;4.70;3.70;;;;;;;;;;5023449;28;20033;-58
2023/12/09 02:19:33;;;;;;;4.45;3.45;;;;;;;;;;5024999;28;20047;-57
2023/12/09 02:22:09;;;;;;;4.00;3.22;;;;;;;;;;5023685;28;20021;-58
2023/12/09 02:24:34;;;;;;;4.95;3.90;;;;;;;;;;5025602;28;20040;-57
2023/12/09 02:27:12;;;;;;;4.85;3.40;;;;;;;;;;5024762;28;20117;-57
2023/12/09 02:29:58;;;;;;;4.20;3.47;;;;;;;;;;5006824;28;20042;-57
2023/12/09 02:32:24;;;;;;;4.45;3.72;;;;;;;;;;5023168;28;20038;-57
2023/12/09 02:34:49;;;;;;;4.88;3.67;;;;;;;;;;5024142;28;20042;-58
2023/12/09 02:37:14;;;;;;;4.57;3.20;;;;;;;;;;5023715;28;20249;-58
2023/12/09 02:39:40;;;;;;;4.50;3.58;;;;;;;;;;5038607;28;20431;-57
2023/12/09 02:42:06;;;;;;;4.57;3.45;;;;;;;;;;5005124;28;20033;-57
2023/12/09 02:44:31;;;;;;;4.47;3.47;;;;;;;;;;5005182;28;20041;-57
2023/12/09 02:46:56;;;;;;;4.07;3.40;;;;;;;;;;5023419;28;20049;-57
2023/12/09 02:49:22;;;;;;;5.57;3.92;;;;;;;;;;5023968;28;20514;-58
2023/12/09 02:51:48;;;;;;;4.10;3.38;;;;;;;;;;5023981;28;20442;-57
2023/12/09 02:54:13;;;;;;;4.38;3.55;;;;;;;;;;5006768;28;20036;-58
2023/12/09 02:56:38;;;;;;;4.55;3.70;;;;;;;;;;5021670;28;20092;-59
2023/12/09 02:59:04;;;;;;;4.63;3.53;;;;;;;;;;5006235;28;20603;-59
2023/12/09 03:01:29;;;;;;;4.60;3.40;;;;;;;;;;5023471;28;20087;-60
2023/12/09 03:03:54;;;;;;;4.15;3.20;;;;;;;;;;5024349;28;20045;-59
2023/12/09 03:06:19;;;;;;;4.70;3.63;;;;;;;;;;5023841;28;20486;-59
2023/12/09 03:08:45;;;;;;;4.93;3.47;;;;;;;;;;5023483;28;20128;-59
2023/12/09 03:11:10;;;;;;;3.90;3.35;;;;;;;;;;5023523;28;20049;-60
2023/12/09 03:13:35;;;;;;;4.43;3.40;;;;;;;;;;4996682;28;20495;-59
2023/12/09 03:16:00;;;;;;;4.15;3.25;;;;;;;;;;5023877;28;20139;-60
2023/12/09 03:18:26;;;;;;;4.03;3.25;;;;;;;;;;5024161;28;20160;-59
2023/12/09 03:20:51;;;;;;;4.90;3.58;;;;;;;;;;5023472;28;20033;-58
2023/12/09 03:23:16;;;;;;;5.30;3.72;;;;;;;;;;5023781;28;20037;-58
2023/12/09 03:25:42;;;;;;;5.18;3.75;;;;;;;;;;5024014;28;20048;-56
2023/12/09 03:28:07;;;;;;;4.65;3.55;;;;;;;;;;5006580;28;20588;-57
2023/12/09 03:30:32;;;;;;;4.18;3.30;;;;;;;;;;5026843;28;20076;-59
2023/12/09 03:32:58;;;;;;;4.35;3.20;;;;;;;;;;5028024;28;20041;-58
2023/12/09 03:35:23;;;;;;;4.28;3.28;;;;;;;;;;5028104;28;20411;-58
2023/12/09 03:37:48;;;;;;;4.30;3.33;;;;;;;;;;5028130;28;20057;-57
2023/12/09 03:40:13;;;;;;;3.53;3.13;;;;;;;;;;5028195;28;20091;-59
2023/12/09 03:42:39;;;;;;;4.70;3.72;;;;;;;;;;5027741;28;20443;-58
2023/12/09 03:45:04;;;;;;;4.30;3.40;;;;;;;;;;5027679;28;20481;-58
2023/12/09 03:47:29;;;;;;;4.53;3.35;;;;;;;;;;5023794;28;20061;-58
2023/12/09 03:49:55;;;;;;;4.70;3.75;;;;;;;;;;5009691;28;20083;-60
2023/12/09 03:52:20;;;;;;;4.10;3.17;;;;;;;;;;5027699;28;20093;-58
2023/12/09 03:54:45;;;;;;;5.30;3.50;;;;;;;;;;5028334;28;20041;-58
2023/12/09 03:57:13;;;;;;;4.55;3.30;;;;;;;;;;5024561;28;20022;-58
2023/12/09 03:59:39;;;;;;;4.30;3.33;;;;;;;;;;5027724;28;20029;-59
2023/12/09 04:02:04;;;;;;;3.90;3.03;;;;;;;;;;5027673;28;20462;-58
2023/12/09 04:04:30;;;;;;;4.35;3.08;;;;;;;;;;5026558;28;20076;-58
2023/12/09 04:06:55;;;;;;;3.60;3.00;;;;;;;;;;5007644;28;20482;-59
2023/12/09 04:09:22;;;;;;;4.30;3.28;;;;;;;;;;5027879;28;20052;-58
2023/12/09 04:11:47;;;;;;;3.80;3.00;;;;;;;;;;5018562;28;20044;-57
2023/12/09 04:14:13;;;;;;;4.65;3.45;;;;;;;;;;5009059;28;20041;-57
2023/12/09 04:16:38;;;;;;;4.45;3.55;;;;;;;;;;5008716;28;20045;-58
2023/12/09 04:19:03;;;;;;;3.47;2.60;;;;;;;;;;5028102;28;20041;-57
2023/12/09 04:21:28;;;;;;;4.35;3.38;;;;;;;;;;5009977;28;20041;-58
2023/12/09 04:23:54;;;;;;;3.50;2.75;;;;;;;;;;5027221;28;20049;-59
2023/12/09 04:26:19;;;;;;;4.53;3.10;;;;;;;;;;5025084;28;20225;-58
2023/12/09 04:28:46;;;;;;;3.40;2.70;;;;;;;;;;5025360;28;20454;-59
2023/12/09 04:31:11;;;;;;;3.97;2.95;;;;;;;;;;5026773;28;20026;-57
2023/12/09 04:33:37;;;;;;;4.57;3.22;;;;;;;;;;5026523;28;20033;-58
2023/12/09 04:36:02;;;;;;;4.13;2.92;;;;;;;;;;5027211;28;20065;-58
2023/12/09 04:38:28;;;;;;;3.50;2.88;;;;;;;;;;5008111;28;20041;-58
2023/12/09 04:40:53;;;;;;;3.67;2.95;;;;;;;;;;5009376;28;20474;-58
2023/12/09 04:43:18;;;;;;;4.15;2.83;;;;;;;;;;5008438;28;20041;-58
2023/12/09 04:45:44;;;;;;;4.13;2.80;;;;;;;;;;5026972;28;20043;-58
2023/12/09 04:48:09;;;;;;;4.20;3.00;;;;;;;;;;5013537;28;20050;-58
2023/12/09 04:50:34;;;;;;;3.92;2.95;;;;;;;;;;5025414;28;20111;-58
2023/12/09 04:53:00;;;;;;;4.25;3.33;;;;;;;;;;5009543;28;20041;-58
2023/12/09 04:55:25;;;;;;;3.80;2.85;;;;;;;;;;5009014;28;20048;-59
2023/12/09 04:57:51;;;;;;;3.33;2.90;;;;;;;;;;5027176;28;20124;-57
2023/12/09 05:00:16;;;;;;;3.40;2.80;;;;;;;;;;5025830;28;20059;-58
2023/12/09 05:02:41;;;;;;;3.70;3.13;;;;;;;;;;5025654;28;20030;-58
2023/12/09 05:05:07;;;;;;;3.80;2.70;;;;;;;;;;5005254;28;20061;-58
2023/12/09 05:07:32;;;;;;;3.75;3.00;;;;;;;;;;5020591;28;20045;-58
2023/12/09 05:09:57;;;;;;;4.03;3.25;;;;;;;;;;5027101;28;20044;-59
2023/12/09 05:12:22;;;;;;;3.88;2.90;;;;;;;;;;5007959;28;20037;-58
2023/12/09 05:14:48;;;;;;;3.58;2.70;;;;;;;;;;5025635;28;20052;-58
2023/12/09 05:17:14;;;;;;;4.18;2.95;;;;;;;;;;5026519;28;20056;-58
2023/12/09 05:19:39;;;;;;;4.10;3.00;;;;;;;;;;5025447;28;20046;-58
2023/12/09 05:22:05;;;;;;;3.42;2.78;;;;;;;;;;5026007;28;20040;-59
2023/12/09 05:24:30;;;;;;;3.65;3.00;;;;;;;;;;5003989;28;20355;-58
2023/12/09 05:26:57;;;;;;;3.88;2.70;;;;;;;;;;5025524;28;20041;-58
2023/12/09 05:29:22;;;;;;;3.70;2.90;;;;;;;;;;5024150;28;20082;-58
2023/12/09 05:31:47;;;;;;;3.40;2.85;;;;;;;;;;5025574;28;20120;-60
2023/12/09 05:34:13;;;;;;;3.35;2.60;;;;;;;;;;5005535;28;20586;-59
2023/12/09 05:36:38;;;;;;;3.60;2.72;;;;;;;;;;5025404;28;20060;-58
2023/12/09 05:39:05;;;;;;;4.00;2.92;;;;;;;;;;5007704;28;20029;-58
2023/12/09 05:41:30;;;;;;;3.90;2.80;;;;;;;;;;5025286;28;20037;-59
2023/12/09 05:43:55;;;;;;;3.33;2.80;;;;;;;;;;5025061;28;20399;-59
2023/12/09 05:46:21;;;;;;;3.38;2.70;;;;;;;;;;5025147;28;20033;-58
2023/12/09 05:48:46;;;;;;;3.30;2.63;;;;;;;;;;5024843;28;20120;-58
2023/12/09 05:51:12;;;;;;;3.40;2.83;;;;;;;;;;5025148;28;20118;-59
2023/12/09 05:53:37;;;;;;;3.70;2.90;;;;;;;;;;5025347;28;20111;-58
2023/12/09 05:56:02;;;;;;;3.65;2.97;;;;;;;;;;5025041;28;20081;-58
2023/12/09 05:58:28;;;;;;;3.42;2.65;;;;;;;;;;5025208;28;20036;-58
2023/12/09 06:00:53;;;;;;;3.35;2.65;;;;;;;;;;5024960;28;20462;-58
2023/12/09 06:03:18;;;;;;;3.60;2.78;;;;;;;;;;5015244;28;20531;-59
2023/12/09 06:05:43;;;;;;;3.60;2.55;;;;;;;;;;5021261;28;20052;-58
2023/12/09 06:08:09;;;;;;;3.28;2.58;;;;;;;;;;5024255;28;20104;-58
2023/12/09 06:10:34;;;;;;;3.20;2.55;;;;;;;;;;5022333;28;20498;-60
2023/12/09 06:12:59;;;;;;;3.28;2.53;;;;;;;;;;5016684;28;20120;-57
2023/12/09 06:15:25;;;;;;;3.15;2.60;;;;;;;;;;5013278;28;20521;-57
2023/12/09 06:17:50;;;;;;;3.58;2.70;;;;;;;;;;5014825;28;20086;-58
2023/12/09 06:20:15;;;;;;;3.38;2.70;;;;;;;;;;5015793;28;20037;-58
2023/12/09 06:22:41;;;;;;;3.40;2.50;;;;;;;;;;5017872;28;20033;-57
2023/12/09 06:25:07;;;;;;;3.30;2.63;;;;;;;;;;5016867;28;20125;-58
2023/12/09 06:27:32;;;;;;;2.65;2.20;;;;;;;;;;4998885;28;20042;-58
2023/12/09 06:29:58;;;;;;;3.10;2.50;;;;;;;;;;5016960;28;20025;-57
2023/12/09 06:32:23;;;;;;;3.25;2.30;;;;;;;;;;4999632;28;20041;-57
2023/12/09 06:34:48;;;;;;;2.83;2.40;;;;;;;;;;4998379;28;20041;-57
2023/12/09 06:37:14;;;;;;;3.00;2.40;;;;;;;;;;5014263;28;20132;-57
2023/12/09 06:39:39;;;;;;;3.10;2.33;;;;;;;;;;5015707;28;20033;-58
2023/12/09 06:42:05;;;;;;;3.08;2.53;;;;;;;;;;5016179;28;20409;-57
2023/12/09 06:44:31;;;;;;;3.90;2.70;;;;;;;;;;5015378;28;20048;-57
2023/12/09 06:46:56;;;;;;;2.88;2.47;;;;;;;;;;5016410;28;20049;-56
2023/12/09 06:49:21;;;;;;;3.20;2.42;;;;;;;;;;5015301;28;20575;-56
2023/12/09 06:51:47;;;;;;;2.80;2.50;;;;;;;;;;5017977;28;20049;-57
2023/12/09 06:54:12;;;;;;;3.42;2.58;;;;;;;;;;5016096;28;20041;-57
2023/12/09 06:56:38;;;;;;;2.83;2.22;;;;;;;;;;5015045;28;20424;-57
2023/12/09 06:59:03;;;;;;;2.97;2.50;;;;;;;;;;4998379;28;20421;-58
2023/12/09 07:01:28;;;;;;;3.35;2.63;;;;;;;;;;5016713;28;20045;-57
2023/12/09 07:03:54;;;;;;;3.20;2.58;;;;;;;;;;5015806;28;20087;-57
2023/12/09 07:06:22;;;;;;;3.95;2.65;;;;;;;;;;5015103;28;20033;-57
2023/12/09 07:08:47;;;;;;;3.25;2.60;;;;;;;;;;4991773;28;20034;-58
2023/12/09 07:11:13;;;;;;;3.92;2.33;;;;;;;;;;5015953;28;20103;-58
2023/12/09 07:13:39;;;;;;;3.83;2.63;;;;;;;;;;5016823;28;20127;-58
2023/12/09 07:16:06;;;;;;;3.15;2.40;;;;;;;;;;5016669;28;20497;-57
2023/12/09 07:18:31;;;;;;;3.05;2.42;;;;;;;;;;5015912;28;20667;-57
2023/12/09 07:20:56;;;;;;;3.67;2.53;;;;;;;;;;5016110;28;20041;-57
2023/12/09 07:23:22;;;;;;;3.40;2.55;;;;;;;;;;5015449;28;20037;-57
2023/12/09 07:25:47;;;;;;;3.00;2.50;;;;;;;;;;5015464;28;20048;-57
2023/12/09 07:28:13;;;;;;;3.78;2.42;;;;;;;;;;5015209;28;20045;-60
2023/12/09 07:30:38;;;;;;;2.75;2.17;;;;;;;;;;5014700;28;20478;-57
2023/12/09 07:33:03;;;;;;;2.83;2.47;;;;;;;;;;5016902;28;20468;-57
2023/12/09 07:35:29;;;;;;;3.88;2.85;;;;;;;;;;5016337;28;20060;-58
2023/12/09 07:37:55;;;;;;;3.30;2.72;;;;;;;;;;5015898;28;20037;-58
2023/12/09 07:40:20;;;;;;;2.88;2.22;;;;;;;;;;5001993;28;20030;-57
2023/12/09 07:42:45;;;;;;;3.20;2.60;;;;;;;;;;5014945;28;21023;-57
2023/12/09 07:45:10;;;;;;;4.55;2.80;;;;;;;;;;5015802;28;20061;-57
2023/12/09 07:47:36;;;;;;;4.07;2.38;;;;;;;;;;5019320;28;20057;-57
2023/12/09 07:50:01;;;;;;;3.42;2.53;;;;;;;;;;5015941;28;20057;-56
2023/12/09 07:52:26;;;;;;;3.15;2.60;;;;;;;;;;5015553;28;20053;-59
2023/12/09 07:54:52;;;;;;;2.80;2.30;;;;;;;;;;5015094;28;20164;-57
2023/12/09 07:57:17;;;;;;;3.05;2.40;;;;;;;;;;5019193;28;20037;-59
2023/12/09 07:59:42;;;;;;;3.17;2.78;;;;;;;;;;5018561;28;20040;-58
2023/12/09 08:02:08;;;;;;;3.35;2.47;;;;;;;;;;5015101;28;20064;-58
2023/12/09 08:04:33;;;;;;;2.65;2.13;;;;;;;;;;5018079;28;20412;-58
2023/12/09 08:06:59;;;;;;;2.95;2.45;;;;;;;;;;5001705;28;20049;-58
2023/12/09 08:09:24;;;;;;;2.95;2.22;;;;;;;;;;5021080;28;20083;-57
2023/12/09 08:11:49;;;;;;;3.38;2.47;;;;;;;;;;5016855;28;20037;-58
2023/12/09 08:14:15;;;;;;;5.32;3.58;;;;;;;;;;5023278;28;20044;-57
2023/12/09 08:16:40;;;;;;;4.13;2.60;;;;;;;;;;5018964;28;20583;-57
2023/12/09 08:19:05;;;;;;;3.65;2.33;;;;;;;;;;5020480;28;20076;-57
2023/12/09 08:21:36;;;;;;;2.67;2.20;;;;;;;;;;5026056;28;20144;-58
2023/12/09 08:24:02;;;;;;;3.30;2.55;;;;;;;;;;5026327;28;20033;-57
2023/12/09 08:26:27;;;;;;;2.90;2.17;;;;;;;;;;5024980;28;20034;-57
2023/12/09 08:28:53;;;;;;;4.78;2.42;;;;;;;;;;5018861;28;20079;-58
2023/12/09 08:31:18;;;;;;;4.75;2.58;;;;;;;;;;5005589;28;20045;-57
2023/12/09 08:33:43;;;;;;;5.43;2.92;;;;;;;;;;5021144;28;20120;-58
2023/12/09 08:36:09;;;;;;;5.32;2.60;;;;;;;;;;5019982;28;20029;-57
2023/12/09 08:38:34;;;;;;;4.85;2.70;;;;;;;;;;5020548;28;20462;-57
2023/12/09 08:41:00;;;;;;;8.35;2.92;;;;;;;;;;5023459;28;20037;-58
2023/12/09 08:43:25;;;;;;;3.75;2.60;;;;;;;;;;5020095;28;20099;-58
2023/12/09 08:45:51;;;;;;;3.55;2.33;;;;;;;;;;5019713;28;20167;-57
2023/12/09 08:48:16;;;;;;;5.18;2.40;;;;;;;;;;5020934;28;20140;-57
2023/12/09 08:50:42;;;;;;;3.30;2.40;;;;;;;;;;5018542;28;20522;-57
2023/12/09 08:53:08;;;;;;;5.00;2.22;;;;;;;;;;5018448;28;21888;-58
2023/12/09 08:55:33;;;;;;;3.97;2.80;;;;;;;;;;5018435;28;20029;-56
2023/12/09 08:57:58;;;;;;;3.63;2.45;;;;;;;;;;5016800;28;20069;-58
2023/12/09 09:00:25;;;;;;;5.80;2.85;;;;;;;;;;5018471;28;20503;-57
2023/12/09 09:02:55;;;;;;;5.90;2.75;;;;;;;;;;4994165;28;20443;-57
2023/12/09 09:05:20;;;;;;;3.53;2.40;;;;;;;;;;5020469;28;20042;-57
2023/12/09 09:07:45;;;;;;;4.50;2.60;;;;;;;;;;5017138;28;20052;-57
2023/12/09 09:10:11;;;;;;;5.18;2.58;;;;;;;;;;5019355;28;20041;-58
2023/12/09 09:12:36;;;;;;;5.93;3.38;;;;;;;;;;5017803;28;20587;-58
2023/12/09 09:15:01;;;;;;;8.27;3.05;;;;;;;;;;5018945;28;20045;-58
2023/12/09 09:17:28;;;;;;;5.72;2.80;;;;;;;;;;5019102;28;20048;-57
2023/12/09 09:19:54;;;;;;;6.63;2.90;;;;;;;;;;5017725;28;20048;-57
2023/12/09 09:22:19;;;;;;;4.70;3.20;;;;;;;;;;5017322;28;20029;-58
2023/12/09 09:24:47;;;;;;;5.80;3.10;;;;;;;;;;5016848;28;20271;-58
2023/12/09 09:27:12;;;;;;;4.75;3.10;;;;;;;;;;4992592;28;20045;-58
2023/12/09 09:29:38;;;;;;;5.97;3.03;;;;;;;;;;5015694;28;20064;-57
2023/12/09 09:32:04;;;;;;;6.30;3.55;;;;;;;;;;5018439;28;20033;-57
2023/12/09 09:34:29;;;;;;;6.68;3.20;;;;;;;;;;5017503;28;20549;-58
2023/12/09 09:36:55;;;;;;;6.35;3.28;;;;;;;;;;5014180;28;20480;-58
2023/12/09 09:39:20;;;;;;;8.57;3.55;;;;;;;;;;5016108;28;20037;-58
2023/12/09 09:41:54;;;;;;;5.78;3.60;;;;;;;;;;4995497;28;20029;-58
2023/12/09 09:44:22;;;;;;;9.75;3.53;;;;;;;;;;4997873;28;20067;-58
2023/12/09 09:46:47;;;;;;;6.32;3.42;;;;;;;;;;5016446;28;20618;-58
2023/12/09 09:49:12;;;;;;;4.70;3.17;;;;;;;;;;5016476;28;20037;-57
2023/12/09 09:51:38;;;;;;;7.60;3.65;;;;;;;;;;5016976;28;20032;-58
2023/12/09 09:54:10;;;;;;;8.27;3.60;;;;;;;;;;4996263;28;20085;-59
2023/12/09 09:56:35;;;;;;;7.57;3.60;;;;;;;;;;4998048;28;20041;-59
2023/12/09 09:59:01;;;;;;;7.40;3.80;;;;;;;;;;4994833;28;20041;-57
2023/12/09 10:01:26;;;;;;;8.27;3.95;;;;;;;;;;5018873;28;20821;-57
2023/12/09 10:03:51;;;;;;;8.02;3.70;;;;;;;;;;5019875;28;20515;-57
2023/12/09 10:06:18;;;;;;;8.15;4.03;;;;;;;;;;5019353;28;20136;-58
2023/12/09 10:08:43;;;;;;;6.78;3.70;;;;;;;;;;5017804;28;20050;-57
2023/12/09 10:11:08;;;;;;;6.00;3.90;;;;;;;;;;5017001;28;20099;-56
2023/12/09 10:13:34;;;;;;;7.40;3.90;;;;;;;;;;4995795;28;20045;-58
2023/12/09 10:15:59;;;;;;;8.98;3.60;;;;;;;;;;5002960;28;20037;-58
2023/12/09 10:18:24;;;;;;;8.65;4.05;;;;;;;;;;5002226;28;20061;-58
2023/12/09 10:20:50;;;;;;;7.15;4.00;;;;;;;;;;4981050;28;20042;-58
2023/12/09 10:23:15;;;;;;;7.28;4.07;;;;;;;;;;5019316;28;20034;-58
2023/12/09 10:25:41;;;;;;;7.50;4.15;;;;;;;;;;4994407;28;20037;-58
2023/12/09 10:28:09;;;;;;;9.45;4.30;;;;;;;;;;4994981;28;20046;-59
2023/12/09 10:30:35;;;;;;;7.47;3.95;;;;;;;;;;5018818;28;20029;-58
2023/12/09 10:33:01;;;;;;;11.07;4.45;;;;;;;;;;5001533;28;20048;-58
2023/12/09 10:35:26;;;;;;;9.82;4.18;;;;;;;;;;4994290;28;20037;-57
2023/12/09 10:37:52;;;;;;;7.43;3.88;;;;;;;;;;4999122;28;20030;-58
2023/12/09 10:40:18;;;;;;;8.18;4.05;;;;;;;;;;5020998;28;20120;-57
2023/12/09 10:42:44;;;;;;;9.98;4.30;;;;;;;;;;5018406;28;20044;-58
2023/12/09 10:45:11;;;;;;;8.35;4.07;;;;;;;;;;5019198;28;20037;-58
2023/12/09 10:47:36;;;;;;;8.07;3.80;;;;;;;;;;5020947;28;20045;-57
2023/12/09 10:50:03;;;;;;;8.05;4.18;;;;;;;;;;4998895;28;20522;-57
2023/12/09 10:52:29;;;;;;;8.95;4.30;;;;;;;;;;5020787;28;20056;-58
2023/12/09 10:54:54;;;;;;;7.93;3.92;;;;;;;;;;5022103;28;20079;-58
2023/12/09 10:57:19;;;;;;;8.25;4.00;;;;;;;;;;5019127;28;20034;-58
2023/12/09 10:59:45;;;;;;;8.30;4.00;;;;;;;;;;5019267;28;20442;-57
2023/12/09 11:02:10;;;;;;;7.28;3.83;;;;;;;;;;5002364;28;20041;-57
2023/12/09 11:04:35;;;;;;;8.88;4.35;;;;;;;;;;5016449;28;20056;-57
2023/12/09 11:07:02;;;;;;;9.05;4.15;;;;;;;;;;5018300;28;20143;-58
2023/12/09 11:09:27;;;;;;;6.78;3.58;;;;;;;;;;4999833;28;20032;-58
2023/12/09 11:11:53;;;;;;;11.65;4.88;;;;;;;;;;5015400;28;20045;-58
2023/12/09 11:14:18;;;;;;;7.47;4.28;;;;;;;;;;5015133;28;20042;-58
2023/12/09 11:16:44;;;;;;;6.45;3.70;;;;;;;;;;5015975;28;20121;-55
2023/12/09 11:19:13;;;;;;;8.25;3.90;;;;;;;;;;5019059;28;20098;-56
2023/12/09 11:21:39;;;;;;;6.40;4.07;;;;;;;;;;5020936;28;20045;-57
2023/12/09 11:24:04;;;;;;;7.32;4.00;;;;;;;;;;5002487;28;20146;-58
2023/12/09 11:26:33;;;;;;;8.45;4.28;;;;;;;;;;4998506;28;20048;-59
2023/12/09 11:28:58;;;;;;;8.52;3.88;;;;;;;;;;4980142;28;20128;-58
2023/12/09 11:31:34;;;;;;;6.38;4.00;;;;;;;;;;5020569;28;20262;-59
2023/12/09 11:33:59;;;;;;;6.68;4.00;;;;;;;;;;5019774;28;20037;-58
2023/12/09 11:36:25;;;;;;;6.18;4.10;;;;;;;;;;5021341;28;20048;-58
2023/12/09 11:38:50;;;;;;;6.00;3.78;;;;;;;;;;5018908;28;20029;-57
2023/12/09 11:41:15;;;;;;;5.50;3.40;;;;;;;;;;4992149;28;20045;-58
2023/12/09 11:43:41;;;;;;;6.65;3.60;;;;;;;;;;5020315;28;20427;-57
2023/12/09 11:46:06;;;;;;;9.10;3.75;;;;;;;;;;5023235;28;20034;-58
2023/12/09 11:48:31;;;;;;;5.10;3.47;;;;;;;;;;5022616;28;20092;-58
2023/12/09 11:50:57;;;;;;;5.05;3.47;;;;;;;;;;5023418;28;20036;-58
2023/12/09 11:53:22;;;;;;;5.25;3.70;;;;;;;;;;5002603;28;21032;-58
2023/12/09 11:55:47;;;;;;;5.18;3.35;;;;;;;;;;5023761;28;20042;-58
2023/12/09 11:58:12;;;;;;;5.05;3.47;;;;;;;;;;5020499;28;20154;-59
2023/12/09 12:00:38;;;;;;;5.97;3.42;;;;;;;;;;5019553;28;20076;-58
2023/12/09 12:03:03;;;;;;;4.45;3.40;;;;;;;;;;5021069;28;20095;-58
2023/12/09 12:05:28;;;;;;;5.53;3.20;;;;;;;;;;5021007;28;20189;-58
2023/12/09 12:07:54;;;;;;;5.60;3.60;;;;;;;;;;5019920;28;20119;-58
2023/12/09 12:10:19;;;;;;;4.78;3.45;;;;;;;;;;5019399;28;20101;-59
2023/12/09 12:12:44;;;;;;;6.00;3.40;;;;;;;;;;5017344;28;20528;-58
2023/12/09 12:15:10;;;;;;;6.72;3.83;;;;;;;;;;5019854;28;20672;-58
2023/12/09 12:17:39;;;;;;;5.10;3.50;;;;;;;;;;4999037;28;20770;-59
2023/12/09 12:20:05;;;;;;;5.97;3.50;;;;;;;;;;5021171;28;20115;-58
2023/12/09 12:22:31;;;;;;;5.85;3.65;;;;;;;;;;5021001;28;20124;-58
2023/12/09 12:24:56;;;;;;;4.72;3.30;;;;;;;;;;5021229;28;20128;-59
2023/12/09 12:27:21;;;;;;;5.97;3.40;;;;;;;;;;5003432;28;20057;-59
2023/12/09 12:29:47;;;;;;;5.65;3.67;;;;;;;;;;5002463;28;20053;-60
2023/12/09 12:32:15;;;;;;;7.03;3.67;;;;;;;;;;5003637;28;20033;-59
2023/12/09 12:34:46;;;;;;;6.32;3.38;;;;;;;;;;5006312;28;20041;-59
2023/12/09 12:37:12;;;;;;;5.22;3.42;;;;;;;;;;5021615;28;20148;-59
2023/12/09 12:39:37;;;;;;;4.75;2.88;;;;;;;;;;4996680;28;20121;-60
2023/12/09 12:42:03;;;;;;;5.15;3.25;;;;;;;;;;5005042;28;20577;-61
2023/12/09 12:44:28;;;;;;;4.47;3.08;;;;;;;;;;5021469;28;20061;-60
2023/12/09 12:46:53;;;;;;;5.47;3.50;;;;;;;;;;5021711;28;20049;-59
2023/12/09 12:49:18;;;;;;;5.30;3.00;;;;;;;;;;5022223;28;20041;-60
2023/12/09 12:51:44;;;;;;;6.00;2.97;;;;;;;;;;5004046;28;20070;-60
2023/12/09 12:54:09;;;;;;;5.28;3.13;;;;;;;;;;5006483;28;20124;-60
2023/12/09 12:56:34;;;;;;;4.50;2.90;;;;;;;;;;5020750;28;20273;-60
2023/12/09 12:59:00;;;;;;;4.53;2.90;;;;;;;;;;4997431;28;20507;-60
2023/12/09 13:01:25;;;;;;;5.82;3.03;;;;;;;;;;5021749;28;20508;-59
2023/12/09 13:03:51;;;;;;;5.22;3.10;;;;;;;;;;5021474;28;20045;-60
2023/12/09 13:06:16;;;;;;;3.65;3.05;;;;;;;;;;4995860;28;20160;-60
2023/12/09 13:08:42;;;;;;;5.53;3.05;;;;;;;;;;5022916;28;20045;-59
2023/12/09 13:11:08;;;;;;;4.53;3.25;;;;;;;;;;5022084;28;20057;-59
2023/12/09 13:13:33;;;;;;;4.45;2.92;;;;;;;;;;5021611;28;20143;-60
2023/12/09 13:15:59;;;;;;;3.50;2.80;;;;;;;;;;5021888;28;20065;-61
2023/12/09 13:18:24;;;;;;;3.47;2.50;;;;;;;;;;5022211;28;20034;-60
2023/12/09 13:20:50;;;;;;;4.35;2.95;;;;;;;;;;5020507;28;20530;-61
2023/12/09 13:23:16;;;;;;;4.43;2.70;;;;;;;;;;5021256;28;20034;-60
2023/12/09 13:25:41;;;;;;;4.40;3.05;;;;;;;;;;5021748;28;20463;-61
2023/12/09 13:28:06;;;;;;;5.30;2.97;;;;;;;;;;5003955;28;20140;-60
2023/12/09 13:30:31;;;;;;;3.80;2.60;;;;;;;;;;5024425;28;20424;-60
2023/12/09 13:33:00;;;;;;;5.30;2.63;;;;;;;;;;5007714;28;20519;-60
2023/12/09 13:35:26;;;;;;;4.05;2.58;;;;;;;;;;5025898;28;20131;-59
2023/12/09 13:37:52;;;;;;;3.42;2.50;;;;;;;;;;5025778;28;20506;-59
2023/12/09 13:40:17;;;;;;;3.17;2.38;;;;;;;;;;5024622;28;20029;-60
2023/12/09 13:42:42;;;;;;;3.63;2.80;;;;;;;;;;5008307;28;20065;-59
2023/12/09 13:45:08;;;;;;;3.97;2.80;;;;;;;;;;5025803;28;20047;-59
2023/12/09 13:47:33;;;;;;;4.90;2.78;;;;;;;;;;5007149;28;20053;-59
2023/12/09 13:49:58;;;;;;;4.13;2.95;;;;;;;;;;5004857;28;20053;-59
2023/12/09 13:52:25;;;;;;;3.60;2.70;;;;;;;;;;5019554;28;20049;-60
2023/12/09 13:54:51;;;;;;;3.53;2.65;;;;;;;;;;5005292;28;20041;-60
2023/12/09 13:57:17;;;;;;;4.03;2.70;;;;;;;;;;5006944;28;20785;-60
2023/12/09 13:59:42;;;;;;;3.55;2.58;;;;;;;;;;4996196;28;20060;-60
2023/12/09 14:02:07;;;;;;;3.22;2.30;;;;;;;;;;5023884;28;20132;-59
2023/12/09 14:04:33;;;;;;;3.80;2.92;;;;;;;;;;5024687;28;20045;-58
2023/12/09 14:06:59;;;;;;;3.13;2.05;;;;;;;;;;4988119;28;20073;-59
2023/12/09 14:09:24;;;;;;;4.20;2.55;;;;;;;;;;4995216;28;20038;-58
2023/12/09 14:11:49;;;;;;;3.05;2.38;;;;;;;;;;5024748;28;20037;-60
2023/12/09 14:14:15;;;;;;;3.30;2.40;;;;;;;;;;5024759;28;20714;-59
2023/12/09 14:16:40;;;;;;;3.45;2.53;;;;;;;;;;5025242;28;20080;-60
2023/12/09 14:19:06;;;;;;;3.17;2.40;;;;;;;;;;5007983;28;20427;-59
2023/12/09 14:21:31;;;;;;;3.33;2.30;;;;;;;;;;5006830;28;20052;-59
2023/12/09 14:23:56;;;;;;;3.35;2.50;;;;;;;;;;5007333;28;20655;-59
2023/12/09 14:26:23;;;;;;;3.95;2.70;;;;;;;;;;5025269;28;20038;-59
2023/12/09 14:28:48;;;;;;;9.75;3.10;;;;;;;;;;5023228;28;20049;-58
2023/12/09 14:31:14;;;;;;;5.22;2.15;;;;;;;;;;5024000;28;20118;-59
2023/12/09 14:33:39;;;;;;;5.82;2.65;;;;;;;;;;5023922;28;20033;-59